Metar Cercanos

 

LEPA - Palma De Mallorc, Spain
Distance from station: ONO 38km
Actualización: 23/10/2018 15:30
Few Clouds
Few Clouds
 Viento del NE
Viento: NE 15 km/h
Temperatura: 24°C
Rocío: 12°C
Humedad: 47%
Barómetro: 1024 hPa
Clouds: Few Clouds
Visibility: 10 km
Cloud details: Few Clouds 671 m
2018/10/23 13:30 LEPA 231330Z 05008KT 010V110 9999 FEW022 24/12 Q1024 NOSIG
LEMH - Mahon/Menorca Is, Spain
Distance from station: ENE 105km
Actualización: 23/10/2018 15:30
Few Clouds
Few Clouds
 Viento del NNE
Viento: NNE 28 km/h
Temperatura: 20°C
Rocío: 14°C
Humedad: 69%
Barómetro: 1024 hPa
Clouds: Few Clouds
Visibility: 10 km
Cloud details: Few Clouds 762 m
2018/10/23 13:30 LEMH 231330Z 02015KT 9999 FEW025 20/14 Q1024
 
LEIB - Ibiza/Es Codola, Spain
Distance from station: OSO 165km
Actualización: 23/10/2018 15:30
Few Clouds
Few Clouds
 Viento del E
Viento: E 17 km/h
Temperatura: 23°C
Rocío: 13°C
Humedad: 53%
Barómetro: 1025 hPa
Clouds: Few Clouds
Visibility: 10 km
Cloud details: Few Clouds 1433 m
2018/10/23 13:30 LEIB 231330Z 09009KT 060V120 9999 FEW047 23/13 Q1025 NOSIG
LEBL - Barcelona Airpor, Spain
Distance from station: NNO 225km
Actualización: 23/10/2018 15:30
Despejado
Despejado
 Viento del SSO
Viento: SSO 15 km/h
Temperatura: 20°C
Rocío: 11°C
Humedad: 56%
Barómetro: 1025 hPa
Resumen: Despejado
Visibility: greater than 10 km
2018/10/23 13:30 LEBL 231330Z 21008KT 170V230 CAVOK 20/11 Q1025 NOSIG
 
LEVC - Valencia (civ/Mi, Spain
Distance from station: NO 188km
Actualización: 23/10/2018 15:30
Few Clouds
Few Clouds
 Viento del E
Viento: E 15 km/h
Temperatura: 22°C
Rocío: 16°C
Humedad: 69%
Barómetro: 1025 hPa
Clouds: Few Clouds
Visibility: 10 km
Cloud details: Few Clouds 762 m
2018/10/23 13:30 LEVC 231330Z 08008KT 050V110 9999 FEW025 22/16 Q1025 NOSIG
LEGE - Gerona/Costa Bra, Spain
Distance from station: N 276km
Actualización: 23/10/2018 15:30
Few Clouds
Few Clouds
 Viento del varies
Viento: varies 4 km/h
Temperatura: 23°C
Rocío: 7°C
Humedad: 36%
Barómetro: 1024 hPa
Clouds: Few Clouds
Visibility: 10 km
Cloud details: Few Clouds 1524 m
2018/10/23 13:30 LEGE 231330Z VRB02KT 9999 FEW050 23/07 Q1024
 
LEAL - Alicante/El Alte, Spain
Distance from station: OSO 344km
Actualización: 23/10/2018 15:30
Parcialmente nuboso
Parcialmente nuboso
 Viento del varies
Viento: varies 6 km/h
Temperatura: 22°C
Rocío: 15°C
Humedad: 65%
Barómetro: 1025 hPa
Clouds: Parcialmente nuboso
Visibility: 10 km
Cloud details: Parcialmente nuboso 762 m
Parcialmente nuboso 1981 m
2018/10/23 13:30 LEAL 231330Z VRB03KT 9999 SCT025 SCT065 22/15 Q1025 NOSIG
LEAM - Almeria Airport, Spain
Distance from station: SSO 56km
Actualización: 23/10/2018 15:30
Few Clouds
Few Clouds
 Viento del ENE
Viento: ENE 31 km/h
Temperatura: 25°C
Rocío: 16°C
Humedad: 57%
Barómetro: 1023 hPa
Clouds: Few Clouds
Visibility: 10 km
Cloud details: Few Clouds 914 m
Few Clouds 1524 m
2018/10/23 13:30 LEAM 231330Z 07017KT 9999 FEW030 FEW050TCU 25/16 Q1023
 
LEZG - Zaragoza (mil/Ci, Spain
Distance from station: NO 431km
Actualización: 23/10/2018 15:30
Despejado
Despejado
 Viento del NO
Viento: NO 19 km/h
Temperatura: 21°C
Rocío: 6°C
Humedad: 38%
Barómetro: 1026 hPa
Resumen: Despejado
Visibility: greater than 10 km
2018/10/23 13:30 LEZG 231330Z 31010KT 270V350 CAVOK 21/06 Q1026
LEMD - Madrid/Barajas, Spain
Distance from station: ONO 234km
Actualización: 23/10/2018 15:30
Despejado
Despejado
 Viento del varies
Viento: varies 2 km/h
Temperatura: 21°C
Rocío: 12°C
Humedad: 57%
Barómetro: 1026 hPa
Resumen: Despejado
Visibility: greater than 10 km
2018/10/23 13:30 LEMD 231330Z VRB01KT CAVOK 21/12 Q1026 NOSIG
 
LEGR - Granada Airport, Spain
Distance from station: OSO 62km
Actualización: 23/10/2018 15:30
Few Clouds
Few Clouds
 Viento del varies
Viento: varies 2 km/h
Temperatura: 24°C
Rocío: 12°C
Humedad: 47%
Barómetro: 1025 hPa
Clouds: Few Clouds
Visibility: 10 km
Cloud details: Few Clouds 1219 m
2018/10/23 13:30 LEGR 231330Z VRB01KT 9999 FEW040TCU 24/12 Q1025
LEMG - Malaga (civ/Mil), Spain
Distance from station: OSO 227km
Actualización: 23/10/2018 15:30
Muy nuboso
Muy nuboso
 Viento del ESE
Viento: ESE 11 km/h
Temperatura: 23°C
Rocío: 17°C
Humedad: 69%
Barómetro: 1024 hPa
Clouds: Muy nuboso
Visibility: 10 km
Cloud details: Few Clouds 762 m
Muy nuboso 1524 m
2018/10/23 13:30 LEMG 231330Z 12006KT 080V160 9999 FEW025 BKN050 23/17 Q1024 NOSIG
 
LEZL - Sevilla (civ/Mil, Spain
Distance from station: S 318km
Actualización: 23/10/2018 15:30
Few Clouds
Few Clouds
 Viento del NNE
Viento: NNE 7 km/h
Temperatura: 24°C
Rocío: 16°C
Humedad: 61%
Barómetro: 1023 hPa
Clouds: Few Clouds
Visibility: 10 km
Cloud details: Few Clouds 1219 m
2018/10/23 13:30 LEZL 231330Z 02004KT 330V080 9999 FEW040 24/16 Q1023 NOSIG
LEVT - Vitoria, Spain
Distance from station: NO 226km
Actualización: 23/10/2018 15:30
Few Clouds
Few Clouds
 Viento del NNE
Viento: NNE 20 km/h
Temperatura: 16°C
Rocío: 8°C
Humedad: 59%
Barómetro: 1030 hPa
Clouds: Few Clouds
Visibility: 10 km
Cloud details: Few Clouds 762 m
2018/10/23 13:30 LEVT 231330Z 02011KT 350V060 9999 FEW025 16/08 Q1030
 
LEBB - Bilbao/Sondica, Spain
Distance from station: NNO 235km
Actualización: 23/10/2018 15:30
Parcialmente nuboso
Parcialmente nuboso
 Viento del NNE
Viento: NNE 9 km/h
Temperatura: 19°C
Rocío: 12°C
Humedad: 64%
Barómetro: 1030 hPa
Clouds: Parcialmente nuboso
Visibility: 10 km
Cloud details: Few Clouds 792 m
Parcialmente nuboso 1036 m
2018/10/23 13:30 LEBB 231330Z 02005KT 330V080 9999 FEW026 SCT034 19/12 Q1030 NOSIG
LESO - San Sebastian/Fu, Spain
Distance from station: N 231km
Actualización: 23/10/2018 15:30
Few Clouds
Few Clouds
 Viento del O
Viento: O 11 km/h
Temperatura: 17°C
Rocío: 11°C
Humedad: 68%
Barómetro: 1030 hPa
Clouds: Few Clouds
Visibility: 10 km
Cloud details: Few Clouds 762 m
2018/10/23 13:30 LESO 231330Z 28006KT 230V330 9999 FEW025 17/11 Q1030
 
LEVD - Valladolid(Mil/C, Spain
Distance from station: ONO 239km
Actualización: 23/10/2018 15:30
Despejado
Despejado
 Viento del E
Viento: E 11 km/h
Temperatura: 19°C
Rocío: 3°C
Humedad: 35%
Barómetro: 1027 hPa
Resumen: Despejado
Visibility: greater than 10 km
2018/10/23 13:30 LEVD 231330Z 09006KT 040V140 CAVOK 19/03 Q1027
LESA - Salamanca (civ/M, Spain
Distance from station: ONO 349km
Actualización: 23/10/2018 15:30
Despejado
Despejado
 Viento del E
Viento: E 9 km/h
Temperatura: 19°C
Rocío: 5°C
Humedad: 40%
Barómetro: 1027 hPa
Resumen: Despejado
Visibility: greater than 10 km
2018/10/23 13:30 LESA 231330Z 08005KT 010V130 CAVOK 19/05 Q1027
 
LEXJ - Santander/Paraya, Spain
Distance from station: NNO 247km
Actualización: 23/10/2018 15:30
Parcialmente nuboso
Parcialmente nuboso
 Viento del NE
Viento: NE 17 km/h
Temperatura: 18°C
Rocío: 14°C
Humedad: 78%
Barómetro: 1031 hPa
Clouds: Parcialmente nuboso
Visibility: 10 km
Cloud details: Parcialmente nuboso 792 m
2018/10/23 13:30 LEXJ 231330Z 05009KT 010V080 9999 SCT026 18/14 Q1031
LEAS - Asturias/Aviles, Spain
Distance from station: NO 214km
Actualización: 23/10/2018 15:30
Parcialmente nuboso
Parcialmente nuboso
 Viento del E
Viento: E 22 km/h
Temperatura: 17°C
Rocío: 13°C
Humedad: 77%
Barómetro: 1030 hPa
Clouds: Parcialmente nuboso
Visibility: 10 km
Cloud details: Parcialmente nuboso 610 m
2018/10/23 13:30 LEAS 231330Z 08012KT 040V110 9999 SCT020 17/13 Q1030 NOSIG
 
LECO - La Coruna/Alvedr, Spain
Distance from station: ONO 222km
Actualización: 23/10/2018 15:30
Few Clouds
Few Clouds
 Viento del ENE
Viento: ENE 19 km/h
Temperatura: 22°C
Rocío: 11°C
Humedad: 50%
Barómetro: 1026 hPa
Clouds: Few Clouds
Visibility: 10 km
Cloud details: Few Clouds 914 m
2018/10/23 13:30 LECO 231330Z 07010KT 9999 FEW030 22/11 Q1026 NOSIG
LEVX - Vigo/Peinador, Spain
Distance from station: O 214km
Actualización: 23/10/2018 15:30
Despejado
Despejado
 Viento del varies
Viento: varies 4 km/h
Temperatura: 23°C
Rocío: 11°C
Humedad: 47%
Barómetro: 1024 hPa
Resumen: Despejado
Visibility: greater than 10 km
2018/10/23 13:30 LEVX 231330Z VRB02KT CAVOK 23/11 Q1024 NOSIG